Terminal Aerodrome Forecast
Issued by NWS

Home | Current Version | Previous Version | Text Only | Print | Product List | Glossary On
Versions: 1 2 3 4 5 6 7 8 9 10 11 12 13
000
FTAK31 PAJN 031700 RRA
TAFAWG
TAF
PAWG 031745Z 0318/0418 28005KT P6SM -RA SCT025 BKN035 OVC050
     FM040300 25005KT P6SM VCSH SCT025 BKN035 OVC050
     FM040600 12006KT P6SM SCT020 BKN040
     FM041600 11011KT P6SM -RA SCT035 OVC050
      AMD LTD TO CLD VIS AND WIND 0406/0415=

USA.gov is the U.S. government's official web portal to all federal, state and local government web resources and services.